createdAt,value
2023-01-18T00:00:38.102Z,1.53
2023-01-18T00:03:08.698Z,1.60
2023-01-18T00:05:40.942Z,2.30
2023-01-18T00:08:11.183Z,1.30
2023-01-18T00:10:39.682Z,1.20
2023-01-18T00:13:07.952Z,0.80
2023-01-18T00:15:36.578Z,0.57
2023-01-18T00:18:05.004Z,0.70
2023-01-18T00:20:33.426Z,0.90
2023-01-18T00:23:02.479Z,1.53
2023-01-18T00:25:32.237Z,0.73
2023-01-18T00:28:00.540Z,0.70
2023-01-18T00:30:29.857Z,4.40
2023-01-18T00:32:59.443Z,4.30
2023-01-18T00:35:28.047Z,3.70
2023-01-18T00:37:58.400Z,4.67
2023-01-18T00:40:30.203Z,3.27
2023-01-18T00:43:32.226Z,3.20
2023-01-18T00:46:00.525Z,2.43
2023-01-18T00:48:28.791Z,1.73
2023-01-18T00:50:57.248Z,1.43
2023-01-18T00:53:25.499Z,1.93
2023-01-18T00:55:53.859Z,1.70
2023-01-18T00:58:23.799Z,1.00
2023-01-18T01:00:53.204Z,2.10
2023-01-18T01:03:21.579Z,1.37
2023-01-18T01:06:07.642Z,0.90
2023-01-18T01:08:36.274Z,0.80
2023-01-18T01:11:08.641Z,0.83
2023-01-18T01:13:56.272Z,0.70
2023-01-18T01:16:42.765Z,0.60
2023-01-18T01:19:28.582Z,0.80
2023-01-18T01:22:14.384Z,0.97
2023-01-18T01:25:00.273Z,1.30
2023-01-18T01:27:28.581Z,1.13
2023-01-18T01:29:58.268Z,1.37
2023-01-18T01:32:26.512Z,0.83
2023-01-18T01:34:54.820Z,1.30
2023-01-18T01:37:23.129Z,1.27
2023-01-18T01:39:51.419Z,0.80
2023-01-18T01:42:19.752Z,1.10
2023-01-18T01:44:52.078Z,0.87
2023-01-18T01:47:26.621Z,0.63
2023-01-18T01:49:57.732Z,1.27
2023-01-18T01:52:28.987Z,1.10
2023-01-18T01:54:59.954Z,1.00
2023-01-18T01:57:29.648Z,0.80
2023-01-18T02:00:00.771Z,0.80
2023-01-18T02:02:32.379Z,0.77
2023-01-18T02:05:01.613Z,1.00
2023-01-18T02:07:30.063Z,0.60
2023-01-18T02:09:59.107Z,1.17
2023-01-18T02:12:28.037Z,0.80
2023-01-18T02:14:57.071Z,1.13
2023-01-18T02:17:36.916Z,1.10
2023-01-18T02:20:24.249Z,0.60
2023-01-18T02:23:09.656Z,1.40
2023-01-18T02:25:51.765Z,1.20
2023-01-18T02:28:24.238Z,1.23
2023-01-18T02:30:55.455Z,0.90
2023-01-18T02:33:29.766Z,1.00
2023-01-18T02:35:59.124Z,0.97
2023-01-18T02:38:31.017Z,1.10
2023-01-18T02:41:05.893Z,1.00
2023-01-18T02:43:54.618Z,0.80
2023-01-18T02:46:38.901Z,1.00
2023-01-18T02:49:08.886Z,0.80
2023-01-18T02:51:37.590Z,1.03
2023-01-18T02:54:08.097Z,0.57
2023-01-18T02:56:39.347Z,0.63
2023-01-18T02:59:11.194Z,0.90
2023-01-18T03:01:43.001Z,1.00
2023-01-18T03:04:13.076Z,1.20
2023-01-18T03:06:43.520Z,0.83
2023-01-18T03:09:21.301Z,1.17
2023-01-18T03:11:56.639Z,0.73
2023-01-18T03:14:31.786Z,0.63
2023-01-18T03:17:06.244Z,0.93
2023-01-18T03:19:57.682Z,0.90
2023-01-18T03:22:48.690Z,0.63
2023-01-18T03:25:17.531Z,0.50
2023-01-18T03:28:04.765Z,0.60
2023-01-18T03:30:53.601Z,0.67
2023-01-18T03:33:56.497Z,0.73
2023-01-18T03:36:27.477Z,1.00
2023-01-18T03:38:57.832Z,0.50
2023-01-18T03:41:28.771Z,0.57
2023-01-18T03:43:59.091Z,0.40
2023-01-18T03:46:28.636Z,0.77
2023-01-18T03:48:58.618Z,0.60
2023-01-18T03:51:29.768Z,0.70
2023-01-18T03:54:03.090Z,0.67
2023-01-18T03:56:34.262Z,0.70
2023-01-18T03:59:05.322Z,0.53
2023-01-18T04:01:34.089Z,0.50
2023-01-18T04:04:09.408Z,0.70
2023-01-18T04:06:38.278Z,0.60
2023-01-18T04:09:08.256Z,0.60
2023-01-18T04:11:36.776Z,0.87
2023-01-18T04:14:05.099Z,0.73
2023-01-18T04:16:33.534Z,0.53
2023-01-18T04:19:02.369Z,0.57
2023-01-18T04:21:32.179Z,0.77
2023-01-18T04:24:01.435Z,0.60
2023-01-18T04:26:30.339Z,0.90
2023-01-18T04:29:00.839Z,0.50
2023-01-18T04:31:29.767Z,0.40
2023-01-18T04:33:58.211Z,0.70
2023-01-18T04:36:28.412Z,0.77
2023-01-18T04:38:58.393Z,0.60
2023-01-18T04:41:26.788Z,0.37
2023-01-18T04:43:55.239Z,0.47
2023-01-18T04:46:23.834Z,0.50
2023-01-18T04:48:52.646Z,0.60
2023-01-18T04:51:21.312Z,0.70
2023-01-18T04:53:49.943Z,0.40
2023-01-18T04:56:20.993Z,0.60
2023-01-18T04:58:49.553Z,0.60
2023-01-18T05:01:18.165Z,0.50
2023-01-18T05:03:46.648Z,0.73
2023-01-18T05:06:16.869Z,0.60
2023-01-18T05:08:45.915Z,0.50
2023-01-18T05:11:15.811Z,0.70
2023-01-18T05:13:49.313Z,0.67
2023-01-18T05:16:19.489Z,0.43
2023-01-18T05:18:48.629Z,0.40
2023-01-18T05:21:17.564Z,0.60
2023-01-18T05:23:45.967Z,0.50
2023-01-18T05:26:16.960Z,0.60
2023-01-18T05:28:45.969Z,0.40
2023-01-18T05:31:16.491Z,0.60
2023-01-18T05:33:45.471Z,0.50
2023-01-18T05:36:13.959Z,0.50
2023-01-18T05:38:42.309Z,0.60
2023-01-18T05:41:10.685Z,0.80
2023-01-18T05:43:49.812Z,0.60
2023-01-18T05:46:19.945Z,0.53
2023-01-18T05:48:48.368Z,0.47
2023-01-18T05:51:16.800Z,0.70
2023-01-18T05:53:45.228Z,0.57
2023-01-18T05:56:13.607Z,0.30
2023-01-18T05:58:42.249Z,0.50
2023-01-18T06:01:11.092Z,0.80
2023-01-18T06:03:41.895Z,0.80
2023-01-18T06:06:10.399Z,0.80
2023-01-18T06:08:38.828Z,0.57
2023-01-18T06:11:07.794Z,0.50
2023-01-18T06:13:36.124Z,0.80
2023-01-18T06:16:04.557Z,0.80
2023-01-18T06:18:34.645Z,0.70
2023-01-18T06:21:05.251Z,0.70
2023-01-18T06:23:33.685Z,0.77
2023-01-18T06:26:02.209Z,0.40
2023-01-18T06:28:31.044Z,1.00
2023-01-18T06:31:00.467Z,0.90
2023-01-18T06:33:29.288Z,0.87
2023-01-18T06:35:58.095Z,0.87
2023-01-18T06:38:29.041Z,0.70
2023-01-18T06:40:57.711Z,0.90
2023-01-18T06:43:26.052Z,0.70
2023-01-18T06:45:55.206Z,0.60
2023-01-18T06:48:24.096Z,0.70
2023-01-18T06:50:54.357Z,0.60
2023-01-18T06:53:23.247Z,0.60
2023-01-18T06:55:57.013Z,0.50
2023-01-18T06:58:25.835Z,0.73
2023-01-18T07:00:56.331Z,0.60
2023-01-18T07:03:24.868Z,0.97
2023-01-18T07:05:54.626Z,0.97
2023-01-18T07:08:23.623Z,0.77
2023-01-18T07:10:53.610Z,0.60
2023-01-18T07:13:25.671Z,0.70
2023-01-18T07:15:56.697Z,1.23
2023-01-18T07:18:25.258Z,0.90
2023-01-18T07:21:00.001Z,0.67
2023-01-18T07:23:28.838Z,0.83
2023-01-18T07:26:01.164Z,0.57
2023-01-18T07:28:31.992Z,0.70
2023-01-18T07:31:00.598Z,0.70
2023-01-18T07:33:29.206Z,1.20
2023-01-18T07:35:58.422Z,0.50
2023-01-18T07:38:27.621Z,0.83
2023-01-18T07:40:59.640Z,0.50
2023-01-18T07:43:28.305Z,0.60
2023-01-18T07:45:58.992Z,1.00
2023-01-18T07:48:27.678Z,0.40
2023-01-18T07:51:03.055Z,0.40
2023-01-18T07:53:32.660Z,0.50
2023-01-18T07:56:01.856Z,0.60
2023-01-18T07:58:30.810Z,0.60
2023-01-18T08:01:07.167Z,0.70
2023-01-18T08:03:36.785Z,0.40
2023-01-18T08:06:06.137Z,0.50
2023-01-18T08:08:35.461Z,0.90
2023-01-18T08:11:05.033Z,0.60
2023-01-18T08:13:33.641Z,0.50
2023-01-18T08:16:03.131Z,0.40
2023-01-18T08:18:33.346Z,0.40
2023-01-18T08:21:01.867Z,0.57
2023-01-18T08:23:30.342Z,0.60
2023-01-18T08:26:02.351Z,0.70
2023-01-18T08:28:30.837Z,0.67
2023-01-18T08:31:07.288Z,0.40
2023-01-18T08:33:39.357Z,0.50
2023-01-18T08:36:11.457Z,0.50
2023-01-18T08:38:39.959Z,0.43
2023-01-18T08:41:08.375Z,0.50
2023-01-18T08:43:39.043Z,0.40
2023-01-18T08:46:07.660Z,0.40
2023-01-18T08:48:36.352Z,0.60
2023-01-18T08:51:06.741Z,0.57
2023-01-18T08:53:35.114Z,0.60
2023-01-18T08:56:05.948Z,0.47
2023-01-18T08:58:36.361Z,0.40
2023-01-18T09:01:06.721Z,0.40
2023-01-18T09:03:35.391Z,0.67
2023-01-18T09:06:04.576Z,0.43
2023-01-18T09:08:34.408Z,0.40
2023-01-18T09:11:12.047Z,1.00
2023-01-18T09:13:54.672Z,0.60
2023-01-18T09:16:27.951Z,0.47
2023-01-18T09:18:57.706Z,0.40
2023-01-18T09:21:28.012Z,0.40
2023-01-18T09:23:59.552Z,0.50
2023-01-18T09:26:28.956Z,0.80
2023-01-18T09:28:57.917Z,1.10
2023-01-18T09:31:28.202Z,0.40
2023-01-18T09:34:18.803Z,0.70
2023-01-18T09:36:53.923Z,0.43
2023-01-18T09:39:24.780Z,0.50
2023-01-18T09:41:54.225Z,0.53
2023-01-18T09:44:25.487Z,0.80
2023-01-18T09:46:55.920Z,0.50
2023-01-18T09:49:27.804Z,0.60
2023-01-18T09:52:06.800Z,0.67
2023-01-18T09:54:40.249Z,0.40
2023-01-18T09:57:20.959Z,0.70
2023-01-18T09:59:54.037Z,0.50
2023-01-18T10:02:24.144Z,0.87
2023-01-18T10:04:54.805Z,0.70
2023-01-18T10:07:28.093Z,0.70
2023-01-18T10:09:59.735Z,0.80
2023-01-18T10:12:31.945Z,0.47
2023-01-18T10:15:02.485Z,0.73
2023-01-18T10:17:35.779Z,0.77
2023-01-18T10:20:14.848Z,0.60
2023-01-18T10:22:47.792Z,0.60
2023-01-18T10:25:19.459Z,0.70
2023-01-18T10:27:57.068Z,0.50
2023-01-18T10:30:33.989Z,0.50
2023-01-18T10:33:04.313Z,0.40
2023-01-18T10:35:33.749Z,0.40
2023-01-18T10:38:03.968Z,0.60
2023-01-18T10:40:34.438Z,0.40
2023-01-18T10:43:04.386Z,0.50
2023-01-18T10:45:34.099Z,0.50
2023-01-18T10:48:19.074Z,0.30
2023-01-18T10:50:50.036Z,0.43
2023-01-18T10:53:27.522Z,0.57
2023-01-18T10:56:02.925Z,0.50
2023-01-18T10:58:32.787Z,0.40
2023-01-18T11:01:03.566Z,0.40
2023-01-18T11:03:37.001Z,0.50
2023-01-18T11:06:07.753Z,0.60
2023-01-18T11:08:37.229Z,0.50
2023-01-18T11:11:08.045Z,0.40
2023-01-18T11:13:51.501Z,0.70
2023-01-18T11:16:21.073Z,0.30
2023-01-18T11:19:03.112Z,0.50
2023-01-18T11:21:40.929Z,0.43
2023-01-18T11:24:10.565Z,0.67
2023-01-18T11:26:51.943Z,0.60
2023-01-18T11:29:20.904Z,0.70
2023-01-18T11:31:50.745Z,0.80
2023-01-18T11:34:23.147Z,0.73
2023-01-18T11:36:51.775Z,0.80
2023-01-18T11:39:21.385Z,0.90
2023-01-18T11:41:51.456Z,0.93
2023-01-18T11:44:22.747Z,0.50
2023-01-18T11:46:52.304Z,0.97
2023-01-18T11:49:37.064Z,0.70
2023-01-18T11:52:09.772Z,0.90
2023-01-18T11:54:40.836Z,0.80
2023-01-18T11:57:14.434Z,0.80
2023-01-18T11:59:44.015Z,0.80
2023-01-18T12:02:31.685Z,0.90
2023-01-18T12:05:14.502Z,0.83
2023-01-18T12:07:48.095Z,0.87
2023-01-18T12:10:20.835Z,0.60
2023-01-18T12:12:55.717Z,0.60
2023-01-18T12:15:31.359Z,0.60
2023-01-18T12:18:18.772Z,1.10
2023-01-18T12:20:55.450Z,0.70
2023-01-18T12:23:31.317Z,0.73
2023-01-18T12:26:12.302Z,0.57
2023-01-18T12:28:52.224Z,0.50
2023-01-18T12:31:26.909Z,0.83
2023-01-18T12:33:59.543Z,0.60
2023-01-18T12:36:44.640Z,0.70
2023-01-18T12:39:21.098Z,0.80
2023-01-18T12:42:01.335Z,0.67
2023-01-18T12:44:52.832Z,0.83
2023-01-18T12:47:39.457Z,1.17
2023-01-18T12:50:15.589Z,0.70
2023-01-18T12:52:48.070Z,0.93
2023-01-18T12:55:18.218Z,1.03
2023-01-18T12:57:48.167Z,0.93
2023-01-18T13:00:21.259Z,0.80
2023-01-18T13:02:54.425Z,0.97
2023-01-18T13:05:28.594Z,0.77
2023-01-18T13:08:01.079Z,0.97
2023-01-18T13:10:30.531Z,1.20
2023-01-18T13:12:59.469Z,1.33
2023-01-18T13:15:35.963Z,0.70
2023-01-18T13:18:08.025Z,1.13
2023-01-18T13:20:43.643Z,0.67
2023-01-18T13:23:28.495Z,1.00
2023-01-18T13:25:59.266Z,1.30
2023-01-18T13:28:33.464Z,1.17
2023-01-18T13:31:07.586Z,1.30
2023-01-18T13:33:47.892Z,1.00
2023-01-18T13:36:25.407Z,1.00
2023-01-18T13:39:06.410Z,1.60
2023-01-18T13:41:35.262Z,1.53
2023-01-18T13:44:05.259Z,1.10
2023-01-18T13:46:39.624Z,1.63
2023-01-18T13:49:36.601Z,1.17
2023-01-18T13:52:29.182Z,1.07
2023-01-18T13:55:11.661Z,0.90
2023-01-18T13:57:40.384Z,1.53
2023-01-18T14:00:32.051Z,0.97
2023-01-18T14:03:14.331Z,1.63
2023-01-18T14:05:45.045Z,1.10
2023-01-18T14:08:20.427Z,0.83
2023-01-18T14:10:49.599Z,1.00
2023-01-18T14:13:21.479Z,1.70
2023-01-18T14:15:52.355Z,1.00
2023-01-18T14:18:26.264Z,0.97
2023-01-18T14:21:24.945Z,1.50
2023-01-18T14:24:06.191Z,1.50
2023-01-18T14:26:36.486Z,1.13
2023-01-18T14:29:07.056Z,1.40
2023-01-18T14:31:39.769Z,1.20
2023-01-18T14:34:36.147Z,1.40
2023-01-18T14:37:06.259Z,1.20
2023-01-18T14:39:34.751Z,1.77
2023-01-18T14:42:04.371Z,0.97
2023-01-18T14:44:48.671Z,0.87
2023-01-18T14:47:27.675Z,1.07
2023-01-18T14:49:57.629Z,1.70
2023-01-18T14:52:29.437Z,1.47
2023-01-18T14:54:58.058Z,1.60
2023-01-18T14:57:26.881Z,1.47
2023-01-18T14:59:56.583Z,1.20
2023-01-18T15:02:27.703Z,1.20
2023-01-18T15:07:53.085Z,1.47
2023-01-18T15:10:21.556Z,0.97
2023-01-18T15:12:51.272Z,1.17
2023-01-18T15:15:25.061Z,1.20
2023-01-18T15:17:54.228Z,1.53
2023-01-18T15:20:28.481Z,1.20
2023-01-18T15:22:58.820Z,1.63
2023-01-18T15:25:28.678Z,1.30
2023-01-18T15:28:03.080Z,1.43
2023-01-18T15:30:36.089Z,1.40
2023-01-18T15:33:04.693Z,1.67
2023-01-18T15:35:33.505Z,1.53
2023-01-18T15:38:07.980Z,1.43
2023-01-18T15:40:36.480Z,1.40
2023-01-18T15:43:07.550Z,1.83
2023-01-18T15:45:38.305Z,1.83
2023-01-18T15:48:10.853Z,1.63
2023-01-18T15:50:46.397Z,2.47
2023-01-18T15:53:19.836Z,1.77
2023-01-18T15:55:49.653Z,1.40
2023-01-18T15:58:23.071Z,1.43
2023-01-18T16:00:56.418Z,1.33
2023-01-18T16:03:25.486Z,1.10
2023-01-18T16:06:04.267Z,1.87
2023-01-18T16:08:34.089Z,1.63
2023-01-18T16:11:02.575Z,1.20
2023-01-18T16:13:33.332Z,1.63
2023-01-18T16:16:07.554Z,1.53
2023-01-18T16:18:36.165Z,1.30
2023-01-18T16:21:12.322Z,1.20
2023-01-18T16:23:43.810Z,1.80
2023-01-18T16:26:13.709Z,1.40
2023-01-18T16:28:42.305Z,1.40
2023-01-18T16:31:10.835Z,1.87
2023-01-18T16:33:39.218Z,1.60
2023-01-18T16:36:16.872Z,1.53
2023-01-18T16:38:47.534Z,1.20
2023-01-18T16:41:16.989Z,1.63
2023-01-18T16:43:48.312Z,1.07
2023-01-18T16:46:18.095Z,2.00
2023-01-18T16:48:46.865Z,1.57
2023-01-18T16:51:18.643Z,1.30
2023-01-18T16:53:49.511Z,1.40
2023-01-18T16:56:17.836Z,0.93
2023-01-18T16:58:46.284Z,0.93
2023-01-18T17:01:16.135Z,1.30
2023-01-18T17:03:45.023Z,0.90
2023-01-18T17:06:17.698Z,2.00
2023-01-18T17:08:49.290Z,1.37
2023-01-18T17:11:17.675Z,1.17
2023-01-18T17:13:47.691Z,1.00
2023-01-18T17:16:18.103Z,1.00
2023-01-18T17:18:46.840Z,1.57
2023-01-18T17:21:15.341Z,0.90
2023-01-18T17:23:43.702Z,1.40
2023-01-18T17:26:15.741Z,1.47
2023-01-18T17:28:44.161Z,1.30
2023-01-18T17:31:12.477Z,0.93
2023-01-18T17:33:40.951Z,1.43
2023-01-18T17:36:09.860Z,2.00
2023-01-18T17:38:38.248Z,1.20
2023-01-18T17:41:09.484Z,1.27
2023-01-18T17:43:41.054Z,1.20
2023-01-18T17:46:09.429Z,1.47
2023-01-18T17:48:37.927Z,1.90
2023-01-18T17:51:07.159Z,1.30
2023-01-18T17:53:35.504Z,1.07
2023-01-18T17:56:07.672Z,1.17
2023-01-18T17:58:36.044Z,1.03
2023-01-18T18:01:16.079Z,1.80
2023-01-18T18:03:47.314Z,0.90
2023-01-18T18:06:30.784Z,1.30
2023-01-18T18:09:05.806Z,1.20
2023-01-18T18:11:34.515Z,1.27
2023-01-18T18:14:03.301Z,1.80
2023-01-18T18:16:38.512Z,1.20
2023-01-18T18:19:14.482Z,1.10
2023-01-18T18:21:50.837Z,1.30
2023-01-18T18:24:19.378Z,0.83
2023-01-18T18:26:48.044Z,1.17
2023-01-18T18:29:16.503Z,1.50
2023-01-18T18:31:53.748Z,1.20
2023-01-18T18:34:22.129Z,1.47
2023-01-18T18:36:50.718Z,1.60
2023-01-18T18:39:19.081Z,1.70
2023-01-18T18:41:54.631Z,1.40
2023-01-18T18:44:23.148Z,2.00
2023-01-18T18:46:52.888Z,1.30
2023-01-18T18:49:21.333Z,1.17
2023-01-18T18:51:49.667Z,1.50
2023-01-18T18:54:18.013Z,2.20
2023-01-18T18:56:47.081Z,1.67
2023-01-18T18:59:15.623Z,1.33
2023-01-18T19:01:51.917Z,1.70
2023-01-18T19:04:21.684Z,1.40
2023-01-18T19:06:50.145Z,2.00
2023-01-18T19:09:18.573Z,2.17
2023-01-18T19:11:50.750Z,2.00
2023-01-18T19:14:25.628Z,1.60
2023-01-18T19:17:01.728Z,1.73
2023-01-18T19:19:31.650Z,1.63
2023-01-18T19:22:00.234Z,1.87
2023-01-18T19:24:33.374Z,1.40
2023-01-18T19:27:01.839Z,1.80
2023-01-18T19:29:30.523Z,1.80
2023-01-18T19:31:58.942Z,1.80
2023-01-18T19:34:33.617Z,1.90
2023-01-18T19:37:03.862Z,1.50
2023-01-18T19:39:34.480Z,1.40
2023-01-18T19:42:02.974Z,2.40
2023-01-18T19:44:31.932Z,1.83
2023-01-18T19:47:00.425Z,2.07
2023-01-18T19:49:29.227Z,1.67
2023-01-18T19:51:57.985Z,1.30
2023-01-18T19:54:30.190Z,1.67
2023-01-18T19:56:58.538Z,2.47
2023-01-18T19:59:27.226Z,1.70
2023-01-18T20:01:56.038Z,1.80
2023-01-18T20:04:24.611Z,1.50
2023-01-18T20:06:53.238Z,1.40
2023-01-18T20:09:25.109Z,2.10
2023-01-18T20:12:03.575Z,1.93
2023-01-18T20:14:40.926Z,2.00
2023-01-18T20:17:10.474Z,2.10
2023-01-18T20:19:38.899Z,1.70
2023-01-18T20:22:11.087Z,1.87
2023-01-18T20:24:41.487Z,2.03
2023-01-18T20:27:16.110Z,2.00
2023-01-18T20:29:45.261Z,1.60
2023-01-18T20:32:16.513Z,2.40
2023-01-18T20:34:47.477Z,2.37
2023-01-18T20:37:16.606Z,1.43
2023-01-18T20:39:45.109Z,1.40
2023-01-18T20:42:15.737Z,2.13
2023-01-18T20:44:52.804Z,2.37
2023-01-18T20:47:21.939Z,2.33
2023-01-18T20:49:50.163Z,2.60
2023-01-18T20:52:19.750Z,2.27
2023-01-18T20:54:48.201Z,2.00
2023-01-18T20:57:19.012Z,2.50
2023-01-18T20:59:47.405Z,2.60
2023-01-18T21:02:40.679Z,1.87
2023-01-18T21:05:09.564Z,2.53
2023-01-18T21:07:39.405Z,2.43
2023-01-18T21:10:10.140Z,2.30
2023-01-18T21:12:41.363Z,2.63
2023-01-18T21:15:10.166Z,2.13
2023-01-18T21:17:39.722Z,2.07
2023-01-18T21:20:11.173Z,2.50
2023-01-18T21:22:39.582Z,2.10
2023-01-18T21:25:08.667Z,1.90
2023-01-18T21:27:37.106Z,2.93
2023-01-18T21:30:08.185Z,2.47
2023-01-18T21:32:38.626Z,2.63
2023-01-18T21:35:08.565Z,2.37
2023-01-18T21:37:37.229Z,2.90
2023-01-18T21:40:06.174Z,2.20
2023-01-18T21:43:12.521Z,2.23
2023-01-18T21:45:57.901Z,1.90
2023-01-18T21:48:27.018Z,1.83
2023-01-18T21:51:12.941Z,3.50
2023-01-18T21:54:00.412Z,2.60
2023-01-18T21:56:30.041Z,2.90
2023-01-18T21:59:01.050Z,2.77
2023-01-18T22:01:37.740Z,2.10
2023-01-18T22:04:24.361Z,2.70
2023-01-18T22:06:53.458Z,2.13
2023-01-18T22:09:22.151Z,2.33
2023-01-18T22:11:50.744Z,2.97
2023-01-18T22:14:19.074Z,2.47
2023-01-18T22:16:49.047Z,2.20
2023-01-18T22:19:19.070Z,2.40
2023-01-18T22:21:48.407Z,2.70
2023-01-18T22:24:17.783Z,3.47
2023-01-18T22:26:46.918Z,3.10
2023-01-18T22:29:15.712Z,2.80
2023-01-18T22:31:44.699Z,3.40
2023-01-18T22:34:16.078Z,3.63
2023-01-18T22:36:46.133Z,3.40
2023-01-18T22:39:14.612Z,3.00
2023-01-18T22:41:43.194Z,3.07
2023-01-18T22:44:13.277Z,3.27
2023-01-18T22:46:49.502Z,4.30
2023-01-18T22:49:18.002Z,4.47
2023-01-18T22:51:47.945Z,2.87
2023-01-18T22:54:16.327Z,3.70
2023-01-18T22:56:50.540Z,3.27
2023-01-18T22:59:19.205Z,3.50
2023-01-18T23:01:48.010Z,3.50
2023-01-18T23:04:18.916Z,3.43
2023-01-18T23:06:54.489Z,4.17
2023-01-18T23:09:22.889Z,3.83
2023-01-18T23:11:51.657Z,3.20
2023-01-18T23:14:38.093Z,3.70
2023-01-18T23:17:24.004Z,3.70
2023-01-18T23:19:52.466Z,3.50
2023-01-18T23:22:22.635Z,2.80
2023-01-18T23:24:52.962Z,3.50
2023-01-18T23:27:21.310Z,3.80
2023-01-18T23:29:57.383Z,2.73
2023-01-18T23:32:28.122Z,3.23
2023-01-18T23:35:02.782Z,3.33
2023-01-18T23:37:32.712Z,3.70
2023-01-18T23:40:18.832Z,3.27
2023-01-18T23:43:04.766Z,3.30
2023-01-18T23:45:50.860Z,3.17
2023-01-18T23:48:38.973Z,3.20
2023-01-18T23:51:27.205Z,3.50
2023-01-18T23:54:17.005Z,4.00
2023-01-18T23:56:45.922Z,3.30
2023-01-18T23:59:14.902Z,2.97
